sensor_id;sensor_type;location;lat;lon;timestamp;temperature;humidity
17495;DHT22;8864;51.970;4.614;2023-12-20T00:02:13;15.60;81.80
17495;DHT22;8864;51.970;4.614;2023-12-20T00:04:40;15.60;81.80
17495;DHT22;8864;51.970;4.614;2023-12-20T00:07:07;15.60;81.70
17495;DHT22;8864;51.970;4.614;2023-12-20T00:09:34;15.60;81.60
17495;DHT22;8864;51.970;4.614;2023-12-20T00:12:04;15.60;81.60
17495;DHT22;8864;51.970;4.614;2023-12-20T00:14:31;15.60;81.60
17495;DHT22;8864;51.970;4.614;2023-12-20T00:16:58;15.60;82.30
17495;DHT22;8864;51.970;4.614;2023-12-20T00:19:25;15.60;81.60
17495;DHT22;8864;51.970;4.614;2023-12-20T00:21:51;15.60;81.50
17495;DHT22;8864;51.970;4.614;2023-12-20T00:24:19;15.60;81.50
17495;DHT22;8864;51.970;4.614;2023-12-20T00:26:46;15.50;81.40
17495;DHT22;8864;51.970;4.614;2023-12-20T00:29:15;15.60;81.50
17495;DHT22;8864;51.970;4.614;2023-12-20T00:31:42;15.50;81.50
17495;DHT22;8864;51.970;4.614;2023-12-20T00:34:09;15.50;81.30
17495;DHT22;8864;51.970;4.614;2023-12-20T00:36:37;15.50;81.30
17495;DHT22;8864;51.970;4.614;2023-12-20T00:39:04;15.50;81.40
17495;DHT22;8864;51.970;4.614;2023-12-20T00:41:33;15.50;81.30
17495;DHT22;8864;51.970;4.614;2023-12-20T00:44:00;15.50;81.30
17495;DHT22;8864;51.970;4.614;2023-12-20T00:46:28;15.50;81.30
17495;DHT22;8864;51.970;4.614;2023-12-20T00:48:55;15.50;81.30
17495;DHT22;8864;51.970;4.614;2023-12-20T00:51:22;15.50;81.30
17495;DHT22;8864;51.970;4.614;2023-12-20T00:53:50;15.50;81.30
17495;DHT22;8864;51.970;4.614;2023-12-20T00:56:20;15.50;81.20
17495;DHT22;8864;51.970;4.614;2023-12-20T00:58:48;15.50;81.30
17495;DHT22;8864;51.970;4.614;2023-12-20T01:01:15;15.50;81.30
17495;DHT22;8864;51.970;4.614;2023-12-20T01:03:44;15.50;81.30
17495;DHT22;8864;51.970;4.614;2023-12-20T01:06:11;15.50;81.20
17495;DHT22;8864;51.970;4.614;2023-12-20T01:08:38;15.50;81.20
17495;DHT22;8864;51.970;4.614;2023-12-20T01:11:05;15.40;81.20
17495;DHT22;8864;51.970;4.614;2023-12-20T01:13:32;15.50;81.20
17495;DHT22;8864;51.970;4.614;2023-12-20T01:15:59;15.50;81.30
17495;DHT22;8864;51.970;4.614;2023-12-20T01:18:26;15.50;81.20
17495;DHT22;8864;51.970;4.614;2023-12-20T01:20:55;15.40;81.20
17495;DHT22;8864;51.970;4.614;2023-12-20T01:23:22;15.40;81.20
17495;DHT22;8864;51.970;4.614;2023-12-20T01:25:48;15.40;81.20
17495;DHT22;8864;51.970;4.614;2023-12-20T01:28:15;15.40;81.20
17495;DHT22;8864;51.970;4.614;2023-12-20T01:30:42;15.40;81.10
17495;DHT22;8864;51.970;4.614;2023-12-20T01:33:09;15.40;81.20
17495;DHT22;8864;51.970;4.614;2023-12-20T01:35:36;15.40;81.10
17495;DHT22;8864;51.970;4.614;2023-12-20T01:38:05;15.40;81.10
17495;DHT22;8864;51.970;4.614;2023-12-20T01:40:32;15.40;81.00
17495;DHT22;8864;51.970;4.614;2023-12-20T01:42:59;15.40;81.20
17495;DHT22;8864;51.970;4.614;2023-12-20T01:45:27;15.40;81.10
17495;DHT22;8864;51.970;4.614;2023-12-20T01:47:54;15.40;81.00
17495;DHT22;8864;51.970;4.614;2023-12-20T01:50:21;15.40;81.00
17495;DHT22;8864;51.970;4.614;2023-12-20T01:52:49;15.40;81.10
17495;DHT22;8864;51.970;4.614;2023-12-20T01:55:20;15.40;81.10
17495;DHT22;8864;51.970;4.614;2023-12-20T01:57:48;15.40;81.10
17495;DHT22;8864;51.970;4.614;2023-12-20T02:00:15;15.40;81.10
17495;DHT22;8864;51.970;4.614;2023-12-20T02:02:43;15.30;81.00
17495;DHT22;8864;51.970;4.614;2023-12-20T02:05:11;15.30;81.00
17495;DHT22;8864;51.970;4.614;2023-12-20T02:07:39;15.30;81.00
17495;DHT22;8864;51.970;4.614;2023-12-20T02:10:06;15.30;81.00
17495;DHT22;8864;51.970;4.614;2023-12-20T02:12:35;15.30;81.00
17495;DHT22;8864;51.970;4.614;2023-12-20T02:15:03;15.30;81.00
17495;DHT22;8864;51.970;4.614;2023-12-20T02:17:30;15.30;81.20
17495;DHT22;8864;51.970;4.614;2023-12-20T02:19:58;15.30;81.20
17495;DHT22;8864;51.970;4.614;2023-12-20T02:22:26;15.30;81.20
17495;DHT22;8864;51.970;4.614;2023-12-20T02:24:53;15.30;81.20
17495;DHT22;8864;51.970;4.614;2023-12-20T02:27:20;15.30;81.30
17495;DHT22;8864;51.970;4.614;2023-12-20T02:29:48;15.30;81.30
17495;DHT22;8864;51.970;4.614;2023-12-20T02:32:15;15.30;81.30
17495;DHT22;8864;51.970;4.614;2023-12-20T02:34:43;15.30;81.30
17495;DHT22;8864;51.970;4.614;2023-12-20T02:37:10;15.30;81.30
17495;DHT22;8864;51.970;4.614;2023-12-20T02:39:38;15.30;81.30
17495;DHT22;8864;51.970;4.614;2023-12-20T02:42:05;15.30;81.30
17495;DHT22;8864;51.970;4.614;2023-12-20T02:44:32;15.20;81.30
17495;DHT22;8864;51.970;4.614;2023-12-20T02:46:58;15.30;81.40
17495;DHT22;8864;51.970;4.614;2023-12-20T02:49:25;15.30;81.40
17495;DHT22;8864;51.970;4.614;2023-12-20T02:51:53;15.30;81.40
17495;DHT22;8864;51.970;4.614;2023-12-20T02:54:20;15.30;81.50
17495;DHT22;8864;51.970;4.614;2023-12-20T02:56:49;15.30;81.50
17495;DHT22;8864;51.970;4.614;2023-12-20T02:59:17;15.20;81.40
17495;DHT22;8864;51.970;4.614;2023-12-20T03:01:45;15.20;81.40
17495;DHT22;8864;51.970;4.614;2023-12-20T03:04:12;15.20;81.40
17495;DHT22;8864;51.970;4.614;2023-12-20T03:06:40;15.20;81.40
17495;DHT22;8864;51.970;4.614;2023-12-20T03:09:07;15.20;81.50
17495;DHT22;8864;51.970;4.614;2023-12-20T03:11:34;15.20;81.50
17495;DHT22;8864;51.970;4.614;2023-12-20T03:14:02;15.20;81.50
17495;DHT22;8864;51.970;4.614;2023-12-20T03:16:29;15.20;81.50
17495;DHT22;8864;51.970;4.614;2023-12-20T03:18:56;15.20;81.50
17495;DHT22;8864;51.970;4.614;2023-12-20T03:21:23;15.20;81.50
17495;DHT22;8864;51.970;4.614;2023-12-20T03:23:50;15.20;81.50
17495;DHT22;8864;51.970;4.614;2023-12-20T03:26:17;15.20;81.50
17495;DHT22;8864;51.970;4.614;2023-12-20T03:28:45;15.20;81.50
17495;DHT22;8864;51.970;4.614;2023-12-20T03:31:15;15.20;81.60
17495;DHT22;8864;51.970;4.614;2023-12-20T03:33:42;15.20;81.60
17495;DHT22;8864;51.970;4.614;2023-12-20T03:36:09;15.20;81.60
17495;DHT22;8864;51.970;4.614;2023-12-20T03:38:36;15.10;81.50
17495;DHT22;8864;51.970;4.614;2023-12-20T03:41:03;15.20;81.60
17495;DHT22;8864;51.970;4.614;2023-12-20T03:43:30;15.20;81.60
17495;DHT22;8864;51.970;4.614;2023-12-20T03:45:56;15.20;82.40
17495;DHT22;8864;51.970;4.614;2023-12-20T03:48:25;15.10;81.50
17495;DHT22;8864;51.970;4.614;2023-12-20T03:50:52;15.10;81.50
17495;DHT22;8864;51.970;4.614;2023-12-20T03:53:19;15.10;81.50
17495;DHT22;8864;51.970;4.614;2023-12-20T03:55:46;15.10;81.50
17495;DHT22;8864;51.970;4.614;2023-12-20T03:58:13;15.10;81.60
17495;DHT22;8864;51.970;4.614;2023-12-20T04:00:40;15.10;81.50
17495;DHT22;8864;51.970;4.614;2023-12-20T04:03:07;15.10;81.50
17495;DHT22;8864;51.970;4.614;2023-12-20T04:05:35;15.10;81.50
17495;DHT22;8864;51.970;4.614;2023-12-20T04:08:02;15.10;81.60
17495;DHT22;8864;51.970;4.614;2023-12-20T04:10:30;15.10;81.50
17495;DHT22;8864;51.970;4.614;2023-12-20T04:12:56;15.10;81.50
17495;DHT22;8864;51.970;4.614;2023-12-20T04:15:23;15.10;81.50
17495;DHT22;8864;51.970;4.614;2023-12-20T04:17:50;15.10;81.50
17495;DHT22;8864;51.970;4.614;2023-12-20T04:20:17;15.10;81.50
17495;DHT22;8864;51.970;4.614;2023-12-20T04:22:45;15.10;81.50
17495;DHT22;8864;51.970;4.614;2023-12-20T04:25:12;15.10;81.50
17495;DHT22;8864;51.970;4.614;2023-12-20T04:27:39;15.10;81.50
17495;DHT22;8864;51.970;4.614;2023-12-20T04:30:07;15.10;81.50
17495;DHT22;8864;51.970;4.614;2023-12-20T04:32:34;15.10;81.50
17495;DHT22;8864;51.970;4.614;2023-12-20T04:35:01;15.10;81.50
17495;DHT22;8864;51.970;4.614;2023-12-20T04:37:28;15.10;81.50
17495;DHT22;8864;51.970;4.614;2023-12-20T04:39:57;15.00;81.40
17495;DHT22;8864;51.970;4.614;2023-12-20T04:42:24;15.00;81.40
17495;DHT22;8864;51.970;4.614;2023-12-20T04:44:51;15.00;81.40
17495;DHT22;8864;51.970;4.614;2023-12-20T04:47:18;15.00;81.50
17495;DHT22;8864;51.970;4.614;2023-12-20T04:49:45;15.00;81.40
17495;DHT22;8864;51.970;4.614;2023-12-20T04:52:12;15.00;81.40
17495;DHT22;8864;51.970;4.614;2023-12-20T04:54:40;15.00;81.50
17495;DHT22;8864;51.970;4.614;2023-12-20T04:57:08;15.00;81.50
17495;DHT22;8864;51.970;4.614;2023-12-20T04:59:35;15.00;81.50
17495;DHT22;8864;51.970;4.614;2023-12-20T05:02:02;15.00;81.50
17495;DHT22;8864;51.970;4.614;2023-12-20T05:04:29;15.00;81.50
17495;DHT22;8864;51.970;4.614;2023-12-20T05:06:56;15.00;81.50
17495;DHT22;8864;51.970;4.614;2023-12-20T05:09:23;15.00;81.50
17495;DHT22;8864;51.970;4.614;2023-12-20T05:11:50;15.00;81.50
17495;DHT22;8864;51.970;4.614;2023-12-20T05:14:18;15.00;81.50
17495;DHT22;8864;51.970;4.614;2023-12-20T05:16:45;15.00;81.50
17495;DHT22;8864;51.970;4.614;2023-12-20T05:19:12;14.90;81.40
17495;DHT22;8864;51.970;4.614;2023-12-20T05:21:39;14.90;81.40
17495;DHT22;8864;51.970;4.614;2023-12-20T05:24:06;15.00;81.50
17495;DHT22;8864;51.970;4.614;2023-12-20T05:26:33;15.00;81.50
17495;DHT22;8864;51.970;4.614;2023-12-20T05:29:00;14.90;81.50
17495;DHT22;8864;51.970;4.614;2023-12-20T05:31:28;14.90;81.50
17495;DHT22;8864;51.970;4.614;2023-12-20T05:33:55;14.90;81.50
17495;DHT22;8864;51.970;4.614;2023-12-20T05:36:22;14.90;81.50
17495;DHT22;8864;51.970;4.614;2023-12-20T05:38:49;14.90;81.50
17495;DHT22;8864;51.970;4.614;2023-12-20T05:41:16;14.90;81.50
17495;DHT22;8864;51.970;4.614;2023-12-20T05:43:43;14.90;81.50
17495;DHT22;8864;51.970;4.614;2023-12-20T05:46:10;14.90;81.50
17495;DHT22;8864;51.970;4.614;2023-12-20T05:48:39;14.90;81.50
17495;DHT22;8864;51.970;4.614;2023-12-20T05:51:06;15.00;81.60
17495;DHT22;8864;51.970;4.614;2023-12-20T05:53:33;14.90;81.50
17495;DHT22;8864;51.970;4.614;2023-12-20T05:56:01;14.90;81.60
17495;DHT22;8864;51.970;4.614;2023-12-20T05:58:28;14.90;81.60
17495;DHT22;8864;51.970;4.614;2023-12-20T06:00:55;14.90;81.60
17495;DHT22;8864;51.970;4.614;2023-12-20T06:03:22;14.90;81.60
17495;DHT22;8864;51.970;4.614;2023-12-20T06:05:51;14.90;81.60
17495;DHT22;8864;51.970;4.614;2023-12-20T06:08:17;14.90;81.60
17495;DHT22;8864;51.970;4.614;2023-12-20T06:10:44;14.90;81.60
17495;DHT22;8864;51.970;4.614;2023-12-20T06:13:11;14.90;81.60
17495;DHT22;8864;51.970;4.614;2023-12-20T06:15:39;14.90;81.60
17495;DHT22;8864;51.970;4.614;2023-12-20T06:18:06;14.90;81.60
17495;DHT22;8864;51.970;4.614;2023-12-20T06:20:33;14.90;81.60
17495;DHT22;8864;51.970;4.614;2023-12-20T06:23:02;14.90;81.70
17495;DHT22;8864;51.970;4.614;2023-12-20T06:25:28;14.90;81.60
17495;DHT22;8864;51.970;4.614;2023-12-20T06:27:55;14.90;81.70
17495;DHT22;8864;51.970;4.614;2023-12-20T06:30:22;14.90;81.70
17495;DHT22;8864;51.970;4.614;2023-12-20T06:32:51;14.90;81.70
17495;DHT22;8864;51.970;4.614;2023-12-20T06:35:18;14.90;81.80
17495;DHT22;8864;51.970;4.614;2023-12-20T06:37:45;14.90;81.70
17495;DHT22;8864;51.970;4.614;2023-12-20T06:40:14;14.90;81.80
17495;DHT22;8864;51.970;4.614;2023-12-20T06:42:41;14.90;81.80
17495;DHT22;8864;51.970;4.614;2023-12-20T06:45:09;14.90;81.80
17495;DHT22;8864;51.970;4.614;2023-12-20T06:47:38;14.90;81.80
17495;DHT22;8864;51.970;4.614;2023-12-20T06:50:05;14.90;81.80
17495;DHT22;8864;51.970;4.614;2023-12-20T06:52:34;14.90;81.90
17495;DHT22;8864;51.970;4.614;2023-12-20T06:55:01;14.90;81.80
17495;DHT22;8864;51.970;4.614;2023-12-20T06:57:31;14.90;81.80
17495;DHT22;8864;51.970;4.614;2023-12-20T06:59:58;14.90;81.80
17495;DHT22;8864;51.970;4.614;2023-12-20T07:02:24;14.90;81.80
17495;DHT22;8864;51.970;4.614;2023-12-20T07:04:54;14.90;81.80
17495;DHT22;8864;51.970;4.614;2023-12-20T07:07:24;14.90;81.90
17495;DHT22;8864;51.970;4.614;2023-12-20T07:09:50;14.90;81.80
17495;DHT22;8864;51.970;4.614;2023-12-20T07:12:17;14.90;82.00
17495;DHT22;8864;51.970;4.614;2023-12-20T07:14:46;14.90;82.00
17495;DHT22;8864;51.970;4.614;2023-12-20T07:17:13;14.90;82.00
17495;DHT22;8864;51.970;4.614;2023-12-20T07:19:40;14.90;81.80
17495;DHT22;8864;51.970;4.614;2023-12-20T07:22:08;14.90;81.90
17495;DHT22;8864;51.970;4.614;2023-12-20T07:24:35;14.90;81.80
17495;DHT22;8864;51.970;4.614;2023-12-20T07:27:02;14.90;81.80
17495;DHT22;8864;51.970;4.614;2023-12-20T07:29:29;14.90;81.80
17495;DHT22;8864;51.970;4.614;2023-12-20T07:31:57;14.90;81.70
17495;DHT22;8864;51.970;4.614;2023-12-20T07:34:24;14.90;81.70
17495;DHT22;8864;51.970;4.614;2023-12-20T07:36:51;14.90;81.60
17495;DHT22;8864;51.970;4.614;2023-12-20T07:39:18;14.90;81.60
17495;DHT22;8864;51.970;4.614;2023-12-20T07:41:45;14.90;81.60
17495;DHT22;8864;51.970;4.614;2023-12-20T07:44:13;14.90;82.60
17495;DHT22;8864;51.970;4.614;2023-12-20T07:46:41;14.90;82.70
17495;DHT22;8864;51.970;4.614;2023-12-20T07:49:09;14.90;82.30
17495;DHT22;8864;51.970;4.614;2023-12-20T07:51:36;14.90;81.80
17495;DHT22;8864;51.970;4.614;2023-12-20T07:54:03;14.90;81.60
17495;DHT22;8864;51.970;4.614;2023-12-20T07:56:30;14.90;81.50
17495;DHT22;8864;51.970;4.614;2023-12-20T07:58:57;14.90;81.30
17495;DHT22;8864;51.970;4.614;2023-12-20T08:01:24;14.90;82.00
17495;DHT22;8864;51.970;4.614;2023-12-20T08:03:51;14.90;81.20
17495;DHT22;8864;51.970;4.614;2023-12-20T08:06:21;14.90;81.10
17495;DHT22;8864;51.970;4.614;2023-12-20T08:08:49;14.80;81.00
17495;DHT22;8864;51.970;4.614;2023-12-20T08:11:16;14.80;81.10
17495;DHT22;8864;51.970;4.614;2023-12-20T08:13:43;14.80;82.00
17495;DHT22;8864;51.970;4.614;2023-12-20T08:16:10;14.90;81.30
17495;DHT22;8864;51.970;4.614;2023-12-20T08:18:39;14.90;82.00
17495;DHT22;8864;51.970;4.614;2023-12-20T08:21:07;14.80;81.10
17495;DHT22;8864;51.970;4.614;2023-12-20T08:23:35;14.80;83.40
17495;DHT22;8864;51.970;4.614;2023-12-20T08:26:05;14.90;83.30
17495;DHT22;8864;51.970;4.614;2023-12-20T08:28:32;14.80;82.50
17495;DHT22;8864;51.970;4.614;2023-12-20T08:30:59;14.80;83.00
17495;DHT22;8864;51.970;4.614;2023-12-20T08:33:26;14.90;82.90
17495;DHT22;8864;51.970;4.614;2023-12-20T08:35:53;14.90;82.60
17495;DHT22;8864;51.970;4.614;2023-12-20T08:38:19;14.90;83.20
17495;DHT22;8864;51.970;4.614;2023-12-20T08:40:48;14.90;83.00
17495;DHT22;8864;51.970;4.614;2023-12-20T08:43:15;14.90;82.80
17495;DHT22;8864;51.970;4.614;2023-12-20T08:45:42;14.90;82.60
17495;DHT22;8864;51.970;4.614;2023-12-20T08:48:09;14.90;82.60
17495;DHT22;8864;51.970;4.614;2023-12-20T08:50:36;14.90;82.60
17495;DHT22;8864;51.970;4.614;2023-12-20T08:53:03;14.90;82.50
17495;DHT22;8864;51.970;4.614;2023-12-20T08:55:30;14.90;82.50
17495;DHT22;8864;51.970;4.614;2023-12-20T08:57:58;14.90;82.30
17495;DHT22;8864;51.970;4.614;2023-12-20T09:00:25;14.90;82.30
17495;DHT22;8864;51.970;4.614;2023-12-20T09:02:53;14.90;82.30
17495;DHT22;8864;51.970;4.614;2023-12-20T09:05:20;14.90;82.70
17495;DHT22;8864;51.970;4.614;2023-12-20T09:07:48;14.90;83.40
17495;DHT22;8864;51.970;4.614;2023-12-20T09:10:14;14.90;83.00
17495;DHT22;8864;51.970;4.614;2023-12-20T09:12:41;14.90;82.90
17495;DHT22;8864;51.970;4.614;2023-12-20T09:15:10;14.90;83.00
17495;DHT22;8864;51.970;4.614;2023-12-20T09:17:37;14.90;83.00
17495;DHT22;8864;51.970;4.614;2023-12-20T09:20:04;14.90;82.90
17495;DHT22;8864;51.970;4.614;2023-12-20T09:22:33;14.90;82.90
17495;DHT22;8864;51.970;4.614;2023-12-20T09:25:00;14.80;82.80
17495;DHT22;8864;51.970;4.614;2023-12-20T09:27:27;14.90;82.80
17495;DHT22;8864;51.970;4.614;2023-12-20T09:29:54;14.90;82.80
17495;DHT22;8864;51.970;4.614;2023-12-20T09:32:23;14.90;82.90
17495;DHT22;8864;51.970;4.614;2023-12-20T09:34:50;14.80;82.80
17495;DHT22;8864;51.970;4.614;2023-12-20T09:37:17;14.80;82.70
17495;DHT22;8864;51.970;4.614;2023-12-20T09:39:44;14.80;82.70
17495;DHT22;8864;51.970;4.614;2023-12-20T09:42:17;14.80;82.80
17495;DHT22;8864;51.970;4.614;2023-12-20T09:44:47;14.80;83.00
17495;DHT22;8864;51.970;4.614;2023-12-20T09:47:16;14.80;82.90
17495;DHT22;8864;51.970;4.614;2023-12-20T09:49:48;14.80;83.00
17495;DHT22;8864;51.970;4.614;2023-12-20T09:52:16;14.80;82.90
17495;DHT22;8864;51.970;4.614;2023-12-20T09:54:45;14.80;82.90
17495;DHT22;8864;51.970;4.614;2023-12-20T09:57:16;14.80;82.90
17495;DHT22;8864;51.970;4.614;2023-12-20T09:59:43;14.80;83.00
17495;DHT22;8864;51.970;4.614;2023-12-20T10:02:13;14.90;83.00
17495;DHT22;8864;51.970;4.614;2023-12-20T10:04:45;14.90;83.00
17495;DHT22;8864;51.970;4.614;2023-12-20T10:07:15;14.80;82.90
17495;DHT22;8864;51.970;4.614;2023-12-20T10:09:42;14.90;83.10
17495;DHT22;8864;51.970;4.614;2023-12-20T10:12:12;14.90;83.10
17495;DHT22;8864;51.970;4.614;2023-12-20T10:14:39;14.80;83.00
17495;DHT22;8864;51.970;4.614;2023-12-20T10:17:06;14.90;83.00
17495;DHT22;8864;51.970;4.614;2023-12-20T10:19:33;14.90;83.10
17495;DHT22;8864;51.970;4.614;2023-12-20T10:22:00;14.90;83.00
17495;DHT22;8864;51.970;4.614;2023-12-20T10:24:29;14.80;83.00
17495;DHT22;8864;51.970;4.614;2023-12-20T10:27:04;14.90;83.00
17495;DHT22;8864;51.970;4.614;2023-12-20T10:29:32;14.90;83.20
17495;DHT22;8864;51.970;4.614;2023-12-20T10:32:00;14.90;83.00
17495;DHT22;8864;51.970;4.614;2023-12-20T10:34:47;14.90;83.00
17495;DHT22;8864;51.970;4.614;2023-12-20T10:37:14;14.90;83.00
17495;DHT22;8864;51.970;4.614;2023-12-20T10:39:42;14.90;83.00
17495;DHT22;8864;51.970;4.614;2023-12-20T10:42:10;14.90;83.00
17495;DHT22;8864;51.970;4.614;2023-12-20T10:44:38;14.90;83.10
17495;DHT22;8864;51.970;4.614;2023-12-20T10:47:05;14.90;83.00
17495;DHT22;8864;51.970;4.614;2023-12-20T10:49:36;14.90;83.10
17495;DHT22;8864;51.970;4.614;2023-12-20T10:52:04;14.90;83.10
17495;DHT22;8864;51.970;4.614;2023-12-20T10:54:32;14.90;83.10
17495;DHT22;8864;51.970;4.614;2023-12-20T10:57:03;14.90;83.20
17495;DHT22;8864;51.970;4.614;2023-12-20T10:59:33;14.90;83.20
17495;DHT22;8864;51.970;4.614;2023-12-20T11:02:02;14.90;83.10
17495;DHT22;8864;51.970;4.614;2023-12-20T11:04:47;14.90;83.20
17495;DHT22;8864;51.970;4.614;2023-12-20T11:07:21;14.90;83.10
17495;DHT22;8864;51.970;4.614;2023-12-20T11:09:56;14.90;83.10
17495;DHT22;8864;51.970;4.614;2023-12-20T11:12:35;14.90;83.60
17495;DHT22;8864;51.970;4.614;2023-12-20T11:15:05;14.90;83.40
17495;DHT22;8864;51.970;4.614;2023-12-20T11:17:33;14.90;83.30
17495;DHT22;8864;51.970;4.614;2023-12-20T11:20:08;14.90;83.30
17495;DHT22;8864;51.970;4.614;2023-12-20T11:22:37;14.90;83.30
17495;DHT22;8864;51.970;4.614;2023-12-20T11:25:08;14.90;83.30
17495;DHT22;8864;51.970;4.614;2023-12-20T11:27:40;14.90;83.30
17495;DHT22;8864;51.970;4.614;2023-12-20T11:30:08;14.90;83.30
17495;DHT22;8864;51.970;4.614;2023-12-20T11:32:36;14.90;83.30
17495;DHT22;8864;51.970;4.614;2023-12-20T11:35:18;14.90;83.30
17495;DHT22;8864;51.970;4.614;2023-12-20T11:37:46;14.90;83.30
17495;DHT22;8864;51.970;4.614;2023-12-20T11:40:15;14.90;83.30
17495;DHT22;8864;51.970;4.614;2023-12-20T11:42:45;14.90;83.20
17495;DHT22;8864;51.970;4.614;2023-12-20T11:45:14;14.90;83.30
17495;DHT22;8864;51.970;4.614;2023-12-20T11:47:42;14.90;83.20
17495;DHT22;8864;51.970;4.614;2023-12-20T11:50:10;14.90;83.30
17495;DHT22;8864;51.970;4.614;2023-12-20T11:52:36;14.90;83.30
17495;DHT22;8864;51.970;4.614;2023-12-20T11:55:04;14.90;83.20
17495;DHT22;8864;51.970;4.614;2023-12-20T11:57:33;14.90;83.20
17495;DHT22;8864;51.970;4.614;2023-12-20T12:00:01;14.90;83.30
17495;DHT22;8864;51.970;4.614;2023-12-20T12:02:30;14.90;83.70
17495;DHT22;8864;51.970;4.614;2023-12-20T12:04:57;14.90;83.60
17495;DHT22;8864;51.970;4.614;2023-12-20T12:07:25;14.90;83.50
17495;DHT22;8864;51.970;4.614;2023-12-20T12:09:52;14.90;83.40
17495;DHT22;8864;51.970;4.614;2023-12-20T12:12:19;14.90;83.40
17495;DHT22;8864;51.970;4.614;2023-12-20T12:14:46;14.90;83.30
17495;DHT22;8864;51.970;4.614;2023-12-20T12:17:15;14.90;83.20
17495;DHT22;8864;51.970;4.614;2023-12-20T12:19:42;14.90;84.00
17495;DHT22;8864;51.970;4.614;2023-12-20T12:22:11;14.90;83.90
17495;DHT22;8864;51.970;4.614;2023-12-20T12:24:39;14.90;83.70
17495;DHT22;8864;51.970;4.614;2023-12-20T12:27:07;14.90;83.60
17495;DHT22;8864;51.970;4.614;2023-12-20T12:29:34;15.00;83.60
17495;DHT22;8864;51.970;4.614;2023-12-20T12:32:04;15.00;83.50
17495;DHT22;8864;51.970;4.614;2023-12-20T12:34:32;14.90;83.50
17495;DHT22;8864;51.970;4.614;2023-12-20T12:37:00;15.00;83.50
17495;DHT22;8864;51.970;4.614;2023-12-20T12:39:27;15.00;83.50
17495;DHT22;8864;51.970;4.614;2023-12-20T12:41:55;14.90;83.40
17495;DHT22;8864;51.970;4.614;2023-12-20T12:44:23;14.90;83.30
17495;DHT22;8864;51.970;4.614;2023-12-20T12:46:51;15.00;83.50
17495;DHT22;8864;51.970;4.614;2023-12-20T12:49:19;15.00;83.50
17495;DHT22;8864;51.970;4.614;2023-12-20T12:51:48;15.00;83.50
17495;DHT22;8864;51.970;4.614;2023-12-20T12:54:15;15.00;83.50
17495;DHT22;8864;51.970;4.614;2023-12-20T12:56:44;14.90;83.50
17495;DHT22;8864;51.970;4.614;2023-12-20T12:59:12;15.00;83.50
17495;DHT22;8864;51.970;4.614;2023-12-20T13:01:39;15.00;83.50
17495;DHT22;8864;51.970;4.614;2023-12-20T13:04:06;15.00;83.50
17495;DHT22;8864;51.970;4.614;2023-12-20T13:06:36;15.00;83.50
17495;DHT22;8864;51.970;4.614;2023-12-20T13:09:05;15.00;83.50
17495;DHT22;8864;51.970;4.614;2023-12-20T13:11:33;15.00;83.40
17495;DHT22;8864;51.970;4.614;2023-12-20T13:14:01;15.00;83.50
17495;DHT22;8864;51.970;4.614;2023-12-20T13:16:29;15.00;83.50
17495;DHT22;8864;51.970;4.614;2023-12-20T13:18:56;15.00;83.40
17495;DHT22;8864;51.970;4.614;2023-12-20T13:21:24;15.00;83.30
17495;DHT22;8864;51.970;4.614;2023-12-20T13:23:51;15.00;83.50
17495;DHT22;8864;51.970;4.614;2023-12-20T13:26:20;15.00;83.40
17495;DHT22;8864;51.970;4.614;2023-12-20T13:28:48;15.00;83.40
17495;DHT22;8864;51.970;4.614;2023-12-20T13:31:15;15.00;83.40
17495;DHT22;8864;51.970;4.614;2023-12-20T13:33:42;15.00;83.40
17495;DHT22;8864;51.970;4.614;2023-12-20T13:36:10;15.00;83.40
17495;DHT22;8864;51.970;4.614;2023-12-20T13:38:37;15.00;83.40
17495;DHT22;8864;51.970;4.614;2023-12-20T13:41:04;15.00;83.40
17495;DHT22;8864;51.970;4.614;2023-12-20T13:43:33;15.00;83.40
17495;DHT22;8864;51.970;4.614;2023-12-20T13:46:01;15.00;83.50
17495;DHT22;8864;51.970;4.614;2023-12-20T13:48:28;15.00;83.40
17495;DHT22;8864;51.970;4.614;2023-12-20T13:50:55;15.00;83.50
17495;DHT22;8864;51.970;4.614;2023-12-20T13:53:22;15.00;83.40
17495;DHT22;8864;51.970;4.614;2023-12-20T13:55:49;15.00;83.50
17495;DHT22;8864;51.970;4.614;2023-12-20T13:58:16;15.00;83.50
17495;DHT22;8864;51.970;4.614;2023-12-20T14:00:44;15.00;83.50
17495;DHT22;8864;51.970;4.614;2023-12-20T14:03:11;15.00;83.50
17495;DHT22;8864;51.970;4.614;2023-12-20T14:05:38;15.00;83.50
17495;DHT22;8864;51.970;4.614;2023-12-20T14:08:06;15.00;83.50
17495;DHT22;8864;51.970;4.614;2023-12-20T14:10:33;15.00;83.50
17495;DHT22;8864;51.970;4.614;2023-12-20T14:13:00;15.00;83.60
17495;DHT22;8864;51.970;4.614;2023-12-20T14:15:27;15.00;84.70
17495;DHT22;8864;51.970;4.614;2023-12-20T14:17:55;15.00;86.00
17495;DHT22;8864;51.970;4.614;2023-12-20T14:20:22;15.00;85.80
17495;DHT22;8864;51.970;4.614;2023-12-20T14:22:49;15.00;85.20
17495;DHT22;8864;51.970;4.614;2023-12-20T14:25:16;15.00;85.00
17495;DHT22;8864;51.970;4.614;2023-12-20T14:27:43;15.10;86.40
17495;DHT22;8864;51.970;4.614;2023-12-20T14:30:11;15.10;87.10
17495;DHT22;8864;51.970;4.614;2023-12-20T14:32:39;15.10;87.30
17495;DHT22;8864;51.970;4.614;2023-12-20T14:35:08;15.10;87.20
17495;DHT22;8864;51.970;4.614;2023-12-20T14:37:35;15.10;87.00
17495;DHT22;8864;51.970;4.614;2023-12-20T14:40:05;15.10;86.60
17495;DHT22;8864;51.970;4.614;2023-12-20T14:42:36;15.00;86.10
17495;DHT22;8864;51.970;4.614;2023-12-20T14:45:04;15.10;86.10
17495;DHT22;8864;51.970;4.614;2023-12-20T14:47:31;15.10;86.00
17495;DHT22;8864;51.970;4.614;2023-12-20T14:49:57;15.10;85.80
17495;DHT22;8864;51.970;4.614;2023-12-20T14:52:26;15.10;85.70
17495;DHT22;8864;51.970;4.614;2023-12-20T14:54:53;15.10;85.60
17495;DHT22;8864;51.970;4.614;2023-12-20T14:57:19;15.00;85.30
17495;DHT22;8864;51.970;4.614;2023-12-20T14:59:46;15.10;85.30
17495;DHT22;8864;51.970;4.614;2023-12-20T15:02:13;15.00;85.10
17495;DHT22;8864;51.970;4.614;2023-12-20T15:04:41;15.10;85.20
17495;DHT22;8864;51.970;4.614;2023-12-20T15:07:07;15.10;85.00
17495;DHT22;8864;51.970;4.614;2023-12-20T15:09:36;15.00;84.90
17495;DHT22;8864;51.970;4.614;2023-12-20T15:12:04;15.00;84.90
17495;DHT22;8864;51.970;4.614;2023-12-20T15:14:31;15.00;84.80
17495;DHT22;8864;51.970;4.614;2023-12-20T15:16:58;15.10;84.90
17495;DHT22;8864;51.970;4.614;2023-12-20T15:19:25;15.00;84.70
17495;DHT22;8864;51.970;4.614;2023-12-20T15:21:52;15.10;84.70
17495;DHT22;8864;51.970;4.614;2023-12-20T15:24:19;15.00;84.60
17495;DHT22;8864;51.970;4.614;2023-12-20T15:26:55;15.00;84.60
17495;DHT22;8864;51.970;4.614;2023-12-20T15:29:22;15.10;84.60
17495;DHT22;8864;51.970;4.614;2023-12-20T15:31:49;15.00;84.50
17495;DHT22;8864;51.970;4.614;2023-12-20T15:34:16;15.00;84.40
17495;DHT22;8864;51.970;4.614;2023-12-20T15:36:43;15.00;84.40
17495;DHT22;8864;51.970;4.614;2023-12-20T15:39:10;15.00;84.40
17495;DHT22;8864;51.970;4.614;2023-12-20T15:41:39;15.00;84.40
17495;DHT22;8864;51.970;4.614;2023-12-20T15:44:08;15.00;84.30
17495;DHT22;8864;51.970;4.614;2023-12-20T15:46:36;15.00;84.30
17495;DHT22;8864;51.970;4.614;2023-12-20T15:49:03;15.00;84.30